CheckWX is a tool to help pilots better visualize weather data.  It is not intended as a substitute for an official pre-flight weather briefing.

04:50:09 UTC

EDVE METAR
Braunschweig Wolfsburg Airport
Germany
Current

12 hours ago

EDVE 031650Z 29009KT CAVOK 09/M03 Q1016
Observed
Apr-3 @ 16:50 UTC
Wind
  • 290° at 9 KTS
Visibility
10,000+ meters
Flight Rules
VFR
Cloud Levels
  • Clear skies
Temperature
C / 48°F
Dewpoint
-3°C / 27°F
Humidity
43%
Altimeter
30" Hg
Pressure
1015.92 hPa
Previous

13 hours ago

EDVE 031620Z 28009KT 250V320 CAVOK 09/M03 Q1016
Observed
Apr-3 @ 16:20 UTC
Wind
  • 280° at 9 KTS
Visibility
10,000+ meters
Flight Rules
VFR
Cloud Levels
  • Clear skies
Temperature
C / 48°F
Dewpoint
-3°C / 27°F
Humidity
43%
Altimeter
30" Hg
Pressure
1015.92 hPa
Previous

15 hours ago

EDVE 031420Z 30012KT 270V330 CAVOK 10/M03 Q1015
Observed
Apr-3 @ 14:20 UTC
Wind
  • 300° at 12 KTS
Visibility
10,000+ meters
Flight Rules
VFR
Cloud Levels
  • Clear skies
Temperature
10°C / 50°F
Dewpoint
-3°C / 27°F
Humidity
40%
Altimeter
29.97" Hg
Pressure
1014.92 hPa